createdAt,value
2023-02-02T00:00:32.613Z,92.27
2023-02-02T00:01:32.570Z,92.16
2023-02-02T00:02:32.604Z,92.16
2023-02-02T00:03:32.563Z,92.27
2023-02-02T00:04:32.542Z,92.27
2023-02-02T00:05:32.522Z,92.27
2023-02-02T00:06:32.535Z,92.27
2023-02-02T00:07:32.500Z,92.37
2023-02-02T00:08:32.485Z,92.52
2023-02-02T00:09:32.487Z,92.62
2023-02-02T00:10:32.453Z,92.58
2023-02-02T00:11:32.464Z,92.68
2023-02-02T00:12:32.436Z,92.79
2023-02-02T00:13:32.421Z,92.79
2023-02-02T00:14:32.420Z,92.79
2023-02-02T00:15:32.397Z,92.68
2023-02-02T00:16:32.414Z,92.79
2023-02-02T00:17:32.362Z,92.58
2023-02-02T00:18:32.355Z,92.72
2023-02-02T00:19:32.365Z,92.52
2023-02-02T00:20:32.325Z,92.47
2023-02-02T00:21:32.311Z,92.58
2023-02-02T00:22:32.309Z,92.58
2023-02-02T00:23:32.290Z,92.47
2023-02-02T00:24:32.275Z,92.37
2023-02-02T00:25:32.262Z,92.37
2023-02-02T00:26:32.300Z,92.47
2023-02-02T00:27:32.231Z,92.52
2023-02-02T00:28:32.236Z,92.58
2023-02-02T00:29:32.207Z,92.62
2023-02-02T00:30:32.201Z,92.37
2023-02-02T00:31:32.206Z,92.06
2023-02-02T00:32:32.195Z,92.27
2023-02-02T00:33:32.159Z,92.37
2023-02-02T00:34:32.147Z,92.31
2023-02-02T00:35:32.125Z,92.37
2023-02-02T00:36:32.119Z,92.37
2023-02-02T00:37:32.116Z,92.58
2023-02-02T00:38:32.089Z,92.79
2023-02-02T00:39:32.088Z,92.99
2023-02-02T00:40:32.062Z,92.89
2023-02-02T00:41:32.056Z,92.83
2023-02-02T00:42:32.035Z,93.24
2023-02-02T00:43:32.025Z,92.79
2023-02-02T00:44:32.006Z,92.72
2023-02-02T00:45:32.023Z,92.99
2023-02-02T00:46:31.984Z,93.10
2023-02-02T00:47:31.975Z,93.10
2023-02-02T00:48:32.003Z,92.99
2023-02-02T00:49:31.945Z,92.89
2023-02-02T00:50:31.931Z,92.83
2023-02-02T00:51:31.925Z,92.68
2023-02-02T00:52:31.910Z,92.79
2023-02-02T00:53:31.898Z,92.72
2023-02-02T00:54:31.900Z,92.93
2023-02-02T00:55:31.876Z,92.72
2023-02-02T00:56:31.861Z,92.31
2023-02-02T00:57:31.845Z,92.21
2023-02-02T00:58:31.828Z,92.27
2023-02-02T00:59:31.813Z,92.27
2023-02-02T01:00:31.814Z,92.27
2023-02-02T01:01:31.787Z,92.27
2023-02-02T01:02:31.850Z,92.27
2023-02-02T01:03:31.777Z,92.47
2023-02-02T01:04:31.791Z,92.37
2023-02-02T01:05:31.738Z,92.27
2023-02-02T01:06:31.742Z,91.96
2023-02-02T01:07:31.712Z,91.96
2023-02-02T01:08:31.705Z,91.85
2023-02-02T01:09:31.692Z,91.85
2023-02-02T01:10:31.681Z,91.85
2023-02-02T01:11:31.668Z,91.75
2023-02-02T01:12:31.644Z,91.43
2023-02-02T01:13:31.632Z,91.53
2023-02-02T01:14:31.634Z,91.53
2023-02-02T01:15:31.617Z,91.53
2023-02-02T01:16:31.685Z,91.64
2023-02-02T01:17:31.577Z,91.64
2023-02-02T01:18:31.571Z,91.43
2023-02-02T01:19:31.561Z,91.64
2023-02-02T01:20:31.571Z,91.43
2023-02-02T01:21:31.534Z,91.22
2023-02-02T01:22:31.521Z,91.64
2023-02-02T01:23:31.502Z,91.53
2023-02-02T01:24:31.493Z,91.33
2023-02-02T01:25:31.475Z,91.43
2023-02-02T01:26:31.473Z,91.43
2023-02-02T01:27:31.446Z,91.43
2023-02-02T01:28:31.434Z,91.53
2023-02-02T01:29:31.435Z,91.75
2023-02-02T01:30:31.409Z,91.64
2023-02-02T01:31:31.452Z,91.75
2023-02-02T01:32:31.387Z,91.64
2023-02-02T01:33:31.377Z,91.43
2023-02-02T01:34:31.373Z,91.43
2023-02-02T01:35:31.366Z,91.28
2023-02-02T01:36:31.362Z,91.12
2023-02-02T01:37:31.331Z,91.08
2023-02-02T01:38:31.304Z,91.18
2023-02-02T01:39:33.095Z,91.02
2023-02-02T01:40:31.278Z,90.87
2023-02-02T01:41:31.265Z,90.97
2023-02-02T01:42:31.257Z,91.02
2023-02-02T01:43:31.247Z,91.08
2023-02-02T01:44:31.243Z,91.28
2023-02-02T01:45:31.216Z,91.02
2023-02-02T01:46:31.209Z,90.97
2023-02-02T01:47:31.197Z,90.87
2023-02-02T01:48:31.174Z,90.66
2023-02-02T01:49:31.163Z,90.87
2023-02-02T01:50:31.172Z,90.87
2023-02-02T01:51:31.138Z,90.87
2023-02-02T01:52:31.151Z,91.28
2023-02-02T01:53:31.106Z,91.39
2023-02-02T01:54:31.104Z,91.50
2023-02-02T01:55:31.092Z,91.71
2023-02-02T01:56:31.077Z,92.06
2023-02-02T01:57:31.057Z,92.37
2023-02-02T01:58:31.051Z,92.64
2023-02-02T01:59:31.052Z,92.79
2023-02-02T02:00:31.031Z,92.79
2023-02-02T02:01:31.031Z,92.99
2023-02-02T02:02:31.001Z,93.20
2023-02-02T02:03:30.978Z,93.31
2023-02-02T02:04:30.964Z,93.20
2023-02-02T02:05:30.953Z,93.20
2023-02-02T02:06:30.941Z,93.20
2023-02-02T02:07:30.933Z,93.20
2023-02-02T02:08:30.947Z,92.99
2023-02-02T02:09:30.908Z,92.99
2023-02-02T02:10:30.893Z,93.31
2023-02-02T02:11:30.880Z,93.31
2023-02-02T02:12:30.867Z,93.41
2023-02-02T02:13:30.856Z,93.31
2023-02-02T02:14:30.848Z,93.20
2023-02-02T02:15:30.829Z,93.10
2023-02-02T02:16:30.876Z,93.10
2023-02-02T02:17:30.794Z,93.10
2023-02-02T02:18:30.789Z,93.20
2023-02-02T02:19:30.776Z,93.10
2023-02-02T02:20:30.755Z,93.20
2023-02-02T02:21:30.749Z,92.99
2023-02-02T02:22:30.737Z,92.89
2023-02-02T02:23:30.716Z,92.79
2023-02-02T02:24:30.734Z,92.89
2023-02-02T02:25:30.691Z,92.68
2023-02-02T02:26:30.779Z,92.89
2023-02-02T02:27:30.665Z,92.68
2023-02-02T02:28:30.664Z,92.79
2023-02-02T02:29:30.639Z,92.68
2023-02-02T02:30:30.625Z,92.68
2023-02-02T02:31:30.840Z,92.54
2023-02-02T02:32:30.605Z,92.64
2023-02-02T02:33:30.583Z,92.64
2023-02-02T02:34:30.581Z,92.68
2023-02-02T02:35:30.568Z,92.68
2023-02-02T02:36:30.544Z,92.79
2023-02-02T02:37:30.545Z,92.79
2023-02-02T02:38:30.531Z,92.99
2023-02-02T02:39:30.510Z,93.10
2023-02-02T02:40:30.527Z,93.10
2023-02-02T02:41:30.481Z,93.20
2023-02-02T02:42:30.475Z,93.20
2023-02-02T02:43:30.463Z,93.20
2023-02-02T02:44:30.451Z,93.20
2023-02-02T02:45:30.440Z,93.31
2023-02-02T02:46:30.455Z,93.31
2023-02-02T02:47:30.411Z,93.41
2023-02-02T02:48:30.389Z,93.31
2023-02-02T02:49:30.381Z,93.31
2023-02-02T02:50:30.369Z,93.41
2023-02-02T02:51:30.357Z,93.41
2023-02-02T02:52:30.349Z,93.31
2023-02-02T02:53:30.331Z,93.20
2023-02-02T02:54:30.313Z,93.31
2023-02-02T02:55:30.304Z,93.10
2023-02-02T02:56:30.318Z,93.20
2023-02-02T02:57:30.272Z,93.20
2023-02-02T02:58:30.257Z,93.20
2023-02-02T02:59:30.245Z,93.31
2023-02-02T03:00:30.238Z,93.31
2023-02-02T03:01:30.283Z,93.31
2023-02-02T03:02:30.240Z,93.31
2023-02-02T03:03:30.199Z,93.41
2023-02-02T03:04:30.179Z,93.52
2023-02-02T03:05:30.181Z,93.41
2023-02-02T03:06:30.160Z,93.41
2023-02-02T03:07:30.140Z,93.31
2023-02-02T03:08:30.133Z,93.41
2023-02-02T03:09:30.119Z,93.41
2023-02-02T03:10:30.123Z,93.10
2023-02-02T03:11:30.088Z,92.99
2023-02-02T03:12:30.120Z,92.99
2023-02-02T03:13:30.063Z,92.89
2023-02-02T03:14:30.056Z,92.89
2023-02-02T03:15:30.097Z,92.89
2023-02-02T03:16:30.030Z,92.89
2023-02-02T03:17:30.010Z,92.79
2023-02-02T03:18:30.003Z,92.68
2023-02-02T03:19:29.993Z,92.54
2023-02-02T03:20:29.979Z,92.33
2023-02-02T03:21:29.965Z,92.43
2023-02-02T03:22:29.960Z,92.43
2023-02-02T03:23:29.937Z,92.33
2023-02-02T03:24:29.920Z,92.22
2023-02-02T03:25:29.913Z,92.12
2023-02-02T03:26:29.999Z,92.22
2023-02-02T03:27:29.888Z,92.33
2023-02-02T03:28:29.887Z,92.22
2023-02-02T03:29:29.863Z,92.22
2023-02-02T03:30:29.881Z,92.02
2023-02-02T03:31:29.895Z,92.02
2023-02-02T03:32:29.821Z,92.12
2023-02-02T03:33:29.810Z,91.91
2023-02-02T03:34:29.795Z,91.81
2023-02-02T03:35:29.784Z,91.81
2023-02-02T03:36:29.763Z,91.91
2023-02-02T03:37:29.750Z,91.81
2023-02-02T03:38:29.745Z,91.60
2023-02-02T03:39:29.746Z,91.60
2023-02-02T03:40:29.711Z,91.50
2023-02-02T03:41:29.697Z,91.39
2023-02-02T03:42:29.693Z,91.28
2023-02-02T03:43:29.677Z,91.18
2023-02-02T03:44:29.690Z,91.18
2023-02-02T03:45:29.644Z,91.18
2023-02-02T03:46:29.678Z,91.18
2023-02-02T03:47:29.626Z,91.18
2023-02-02T03:48:29.610Z,91.28
2023-02-02T03:49:29.604Z,91.28
2023-02-02T03:50:29.580Z,91.08
2023-02-02T03:51:29.566Z,91.18
2023-02-02T03:52:29.562Z,91.18
2023-02-02T03:53:29.542Z,91.08
2023-02-02T03:54:29.535Z,90.97
2023-02-02T03:55:29.532Z,90.87
2023-02-02T03:56:29.510Z,90.87
2023-02-02T03:57:29.511Z,90.87
2023-02-02T03:58:29.485Z,90.56
2023-02-02T03:59:29.463Z,90.66
2023-02-02T04:00:29.476Z,90.66
2023-02-02T04:01:29.538Z,90.66
2023-02-02T04:02:29.510Z,90.66
2023-02-02T04:03:29.415Z,90.66
2023-02-02T04:04:29.402Z,90.66
2023-02-02T04:05:29.394Z,90.66
2023-02-02T04:06:29.371Z,90.77
2023-02-02T04:07:29.365Z,90.66
2023-02-02T04:08:29.352Z,90.56
2023-02-02T04:09:29.347Z,90.66
2023-02-02T04:10:29.328Z,90.77
2023-02-02T04:11:29.321Z,90.77
2023-02-02T04:12:29.294Z,90.77
2023-02-02T04:13:29.310Z,90.66
2023-02-02T04:14:29.275Z,90.66
2023-02-02T04:15:29.260Z,90.87
2023-02-02T04:16:29.395Z,90.97
2023-02-02T04:17:29.229Z,90.97
2023-02-02T04:18:29.221Z,90.97
2023-02-02T04:19:29.201Z,91.08
2023-02-02T04:20:29.196Z,90.87
2023-02-02T04:21:29.202Z,90.87
2023-02-02T04:22:29.171Z,90.87
2023-02-02T04:23:29.158Z,90.77
2023-02-02T04:24:29.150Z,90.77
2023-02-02T04:25:29.130Z,90.97
2023-02-02T04:26:29.117Z,90.87
2023-02-02T04:27:29.109Z,90.87
2023-02-02T04:28:29.090Z,90.97
2023-02-02T04:29:29.080Z,90.87
2023-02-02T04:30:29.072Z,90.87
2023-02-02T04:31:29.084Z,90.87
2023-02-02T04:32:29.058Z,91.08
2023-02-02T04:33:29.021Z,91.18
2023-02-02T04:34:29.008Z,90.97
2023-02-02T04:35:29.004Z,90.87
2023-02-02T04:36:28.992Z,90.97
2023-02-02T04:37:28.974Z,90.87
2023-02-02T04:38:28.961Z,90.97
2023-02-02T04:39:28.952Z,91.18
2023-02-02T04:40:28.929Z,91.08
2023-02-02T04:41:28.921Z,91.18
2023-02-02T04:42:28.899Z,91.08
2023-02-02T04:43:28.891Z,90.77
2023-02-02T04:44:28.882Z,90.77
2023-02-02T04:45:28.949Z,90.77
2023-02-02T04:46:28.848Z,91.18
2023-02-02T04:47:28.837Z,90.93
2023-02-02T04:48:28.853Z,90.87
2023-02-02T04:49:28.810Z,90.77
2023-02-02T04:50:28.830Z,90.52
2023-02-02T04:51:28.785Z,90.45
2023-02-02T04:52:28.785Z,90.66
2023-02-02T04:53:28.759Z,90.77
2023-02-02T04:54:28.755Z,90.66
2023-02-02T04:55:28.741Z,90.41
2023-02-02T04:56:28.722Z,90.45
2023-02-02T04:57:28.724Z,90.66
2023-02-02T04:58:28.701Z,90.77
2023-02-02T04:59:28.692Z,90.97
2023-02-02T05:00:28.677Z,90.87
2023-02-02T05:01:28.721Z,90.87
2023-02-02T05:02:28.664Z,91.08
2023-02-02T05:03:28.638Z,90.97
2023-02-02T05:04:28.713Z,91.08
2023-02-02T05:05:28.637Z,91.08
2023-02-02T05:06:28.592Z,91.18
2023-02-02T05:07:28.579Z,91.28
2023-02-02T05:08:28.565Z,91.28
2023-02-02T05:09:28.552Z,91.18
2023-02-02T05:10:28.537Z,91.39
2023-02-02T05:11:28.537Z,91.39
2023-02-02T05:12:28.519Z,91.28
2023-02-02T05:13:28.506Z,91.60
2023-02-02T05:14:28.489Z,91.50
2023-02-02T05:15:28.481Z,91.60
2023-02-02T05:16:29.233Z,91.71
2023-02-02T05:17:28.447Z,92.02
2023-02-02T05:18:28.442Z,92.02
2023-02-02T05:19:28.419Z,91.81
2023-02-02T05:20:28.439Z,91.91
2023-02-02T05:21:28.404Z,92.02
2023-02-02T05:22:28.389Z,92.12
2023-02-02T05:23:28.375Z,92.33
2023-02-02T05:24:28.355Z,92.43
2023-02-02T05:25:28.349Z,92.33
2023-02-02T05:26:28.380Z,92.12
2023-02-02T05:27:28.322Z,92.16
2023-02-02T05:28:28.310Z,91.91
2023-02-02T05:29:28.303Z,92.22
2023-02-02T05:30:28.277Z,92.12
2023-02-02T05:31:28.310Z,91.91
2023-02-02T05:32:28.253Z,92.02
2023-02-02T05:33:28.237Z,92.12
2023-02-02T05:34:28.227Z,91.91
2023-02-02T05:35:28.218Z,91.71
2023-02-02T05:36:28.239Z,91.81
2023-02-02T05:37:28.201Z,91.81
2023-02-02T05:38:28.180Z,91.91
2023-02-02T05:39:28.170Z,91.91
2023-02-02T05:40:28.147Z,92.22
2023-02-02T05:41:28.142Z,92.22
2023-02-02T05:42:28.137Z,92.12
2023-02-02T05:43:28.113Z,92.12
2023-02-02T05:44:28.115Z,92.22
2023-02-02T05:45:28.083Z,92.33
2023-02-02T05:46:28.080Z,92.43
2023-02-02T05:47:28.060Z,92.54
2023-02-02T05:48:28.053Z,92.22
2023-02-02T05:49:28.040Z,92.33
2023-02-02T05:50:28.019Z,92.43
2023-02-02T05:51:28.013Z,92.43
2023-02-02T05:52:28.017Z,92.43
2023-02-02T05:53:28.004Z,92.85
2023-02-02T05:54:27.976Z,93.05
2023-02-02T05:55:27.964Z,93.05
2023-02-02T05:56:27.949Z,92.95
2023-02-02T05:57:27.933Z,93.05
2023-02-02T05:58:27.943Z,93.27
2023-02-02T05:59:27.907Z,93.37
2023-02-02T06:00:27.888Z,93.37
2023-02-02T06:01:27.880Z,93.37
2023-02-02T06:02:27.875Z,93.37
2023-02-02T06:03:27.955Z,93.48
2023-02-02T06:04:27.839Z,93.62
2023-02-02T06:05:27.820Z,93.68
2023-02-02T06:06:27.817Z,93.79
2023-02-02T06:07:27.802Z,93.79
2023-02-02T06:08:27.810Z,93.68
2023-02-02T06:09:27.773Z,93.58
2023-02-02T06:10:27.764Z,93.48
2023-02-02T06:11:27.755Z,93.58
2023-02-02T06:12:27.731Z,93.48
2023-02-02T06:13:27.740Z,93.05
2023-02-02T06:14:27.710Z,93.16
2023-02-02T06:15:28.091Z,93.37
2023-02-02T06:16:27.692Z,93.37
2023-02-02T06:17:27.673Z,93.37
2023-02-02T06:18:27.657Z,93.48
2023-02-02T06:19:27.638Z,93.68
2023-02-02T06:20:27.643Z,93.89
2023-02-02T06:21:27.620Z,93.89
2023-02-02T06:22:27.604Z,93.99
2023-02-02T06:23:27.618Z,93.99
2023-02-02T06:24:27.604Z,94.20
2023-02-02T06:25:27.727Z,94.20
2023-02-02T06:26:27.619Z,94.31
2023-02-02T06:27:27.538Z,94.62
2023-02-02T06:28:27.534Z,94.82
2023-02-02T06:29:27.513Z,94.93
2023-02-02T06:30:27.503Z,95.14
2023-02-02T06:31:27.701Z,95.39
2023-02-02T06:32:27.476Z,95.60
2023-02-02T06:33:27.457Z,95.81
2023-02-02T06:34:27.448Z,95.91
2023-02-02T06:35:27.698Z,96.01
2023-02-02T06:36:27.456Z,96.33
2023-02-02T06:37:29.643Z,96.43
2023-02-02T06:38:27.399Z,96.64
2023-02-02T06:39:27.389Z,96.95
2023-02-02T06:40:27.398Z,96.95
2023-02-02T06:41:27.354Z,96.95
2023-02-02T06:42:27.338Z,96.95
2023-02-02T06:43:27.346Z,96.95
2023-02-02T06:44:27.312Z,96.64
2023-02-02T06:45:27.455Z,96.49
2023-02-02T06:46:27.395Z,96.43
2023-02-02T06:47:27.281Z,96.28
2023-02-02T06:48:27.274Z,96.08
2023-02-02T06:49:27.252Z,96.08
2023-02-02T06:50:27.234Z,96.12
2023-02-02T06:51:27.220Z,96.08
2023-02-02T06:52:27.228Z,96.08
2023-02-02T06:53:27.203Z,96.12
2023-02-02T06:54:27.189Z,95.87
2023-02-02T06:55:27.442Z,95.66
2023-02-02T06:56:27.210Z,95.66
2023-02-02T06:57:27.158Z,95.70
2023-02-02T06:58:27.135Z,95.66
2023-02-02T06:59:27.124Z,95.66
2023-02-02T07:00:27.114Z,95.56
2023-02-02T07:01:27.147Z,95.35
2023-02-02T07:02:27.109Z,95.45
2023-02-02T07:03:27.064Z,95.25
2023-02-02T07:04:27.056Z,95.14
2023-02-02T07:05:29.327Z,95.14
2023-02-02T07:06:27.047Z,95.03
2023-02-02T07:07:27.045Z,94.93
2023-02-02T07:08:26.996Z,94.93
2023-02-02T07:09:27.005Z,95.03
2023-02-02T07:11:12.499Z,95.03
2023-02-02T07:11:27.989Z,95.03
2023-02-02T07:12:26.995Z,94.93
2023-02-02T07:13:26.931Z,94.72
2023-02-02T07:14:26.922Z,94.72
2023-02-02T07:15:27.044Z,94.72
2023-02-02T07:16:26.911Z,94.72
2023-02-02T07:17:26.893Z,94.72
2023-02-02T07:18:26.882Z,94.62
2023-02-02T07:19:26.904Z,94.62
2023-02-02T07:20:26.840Z,94.62
2023-02-02T07:21:26.853Z,94.51
2023-02-02T07:22:26.817Z,94.51
2023-02-02T07:23:26.817Z,94.41
2023-02-02T07:24:26.788Z,94.41
2023-02-02T07:25:27.156Z,94.26
2023-02-02T07:26:26.767Z,94.31
2023-02-02T07:27:26.757Z,94.37
2023-02-02T07:28:26.760Z,94.37
2023-02-02T07:29:26.731Z,94.47
2023-02-02T07:30:26.747Z,94.37
2023-02-02T07:31:26.747Z,94.26
2023-02-02T07:32:26.692Z,94.37
2023-02-02T07:33:26.682Z,94.47
2023-02-02T07:34:26.672Z,94.26
2023-02-02T07:35:26.807Z,94.37
2023-02-02T07:36:26.641Z,94.37
2023-02-02T07:37:26.620Z,94.26
2023-02-02T07:38:26.606Z,94.16
2023-02-02T07:39:26.599Z,94.16
2023-02-02T07:40:26.587Z,94.16
2023-02-02T07:41:26.575Z,94.16
2023-02-02T07:42:26.557Z,93.95
2023-02-02T07:43:26.547Z,94.06
2023-02-02T07:44:26.559Z,93.95
2023-02-02T07:45:27.986Z,93.85
2023-02-02T07:46:26.551Z,93.85
2023-02-02T07:47:26.488Z,94.06
2023-02-02T07:48:26.472Z,93.74
2023-02-02T07:49:26.494Z,93.64
2023-02-02T07:50:26.476Z,93.54
2023-02-02T07:51:26.456Z,93.64
2023-02-02T07:52:26.427Z,93.85
2023-02-02T07:53:26.416Z,94.06
2023-02-02T07:54:26.405Z,94.26
2023-02-02T07:55:26.690Z,94.47
2023-02-02T07:56:26.371Z,94.37
2023-02-02T07:57:26.364Z,94.26
2023-02-02T07:58:26.346Z,94.37
2023-02-02T07:59:26.332Z,94.26
2023-02-02T08:00:26.531Z,94.37
2023-02-02T08:01:26.590Z,94.26
2023-02-02T08:02:26.397Z,94.37
2023-02-02T08:03:26.285Z,94.47
2023-02-02T08:04:26.275Z,94.57
2023-02-02T08:05:26.642Z,94.47
2023-02-02T08:06:26.279Z,94.37
2023-02-02T08:07:26.235Z,94.16
2023-02-02T08:08:26.214Z,94.16
2023-02-02T08:09:26.211Z,94.26
2023-02-02T08:10:26.191Z,94.26
2023-02-02T08:11:26.197Z,94.57
2023-02-02T08:12:26.163Z,94.57
2023-02-02T08:13:26.161Z,94.57
2023-02-02T08:14:26.134Z,94.68
2023-02-02T08:15:26.499Z,94.89
2023-02-02T08:16:26.227Z,94.99
2023-02-02T08:17:26.118Z,95.09
2023-02-02T08:18:26.078Z,94.99
2023-02-02T08:19:26.088Z,95.20
2023-02-02T08:20:26.063Z,95.30
2023-02-02T08:21:26.051Z,95.30
2023-02-02T08:22:26.037Z,95.40
2023-02-02T08:23:26.025Z,95.51
2023-02-02T08:24:26.009Z,95.40
2023-02-02T08:25:26.393Z,95.66
2023-02-02T08:26:26.012Z,95.72
2023-02-02T08:27:25.969Z,96.03
2023-02-02T08:28:25.952Z,95.97
2023-02-02T08:29:25.943Z,96.08
2023-02-02T08:30:26.110Z,96.14
2023-02-02T08:31:25.976Z,96.28
2023-02-02T08:32:25.930Z,96.39
2023-02-02T08:33:25.916Z,96.39
2023-02-02T08:34:25.891Z,96.45
2023-02-02T08:35:26.231Z,96.49
2023-02-02T08:36:25.844Z,96.59
2023-02-02T08:37:25.836Z,96.59
2023-02-02T08:38:25.819Z,96.70
2023-02-02T08:39:25.812Z,96.91
2023-02-02T08:40:25.834Z,97.12
2023-02-02T08:41:25.785Z,96.91
2023-02-02T08:42:25.774Z,96.91
2023-02-02T08:43:25.760Z,96.97
2023-02-02T08:44:28.160Z,97.07
2023-02-02T08:46:12.726Z,97.17
2023-02-02T08:46:25.764Z,96.97
2023-02-02T08:47:25.700Z,96.91
2023-02-02T08:48:25.719Z,96.86
2023-02-02T08:49:25.674Z,96.97
2023-02-02T08:50:25.681Z,96.97
2023-02-02T08:51:25.663Z,96.97
2023-02-02T08:52:25.977Z,96.97
2023-02-02T08:53:25.629Z,96.97
2023-02-02T08:54:25.626Z,96.86
2023-02-02T08:55:25.941Z,96.76
2023-02-02T08:56:25.580Z,96.66
2023-02-02T08:57:25.595Z,96.86
2023-02-02T08:58:25.560Z,96.86
2023-02-02T08:59:25.561Z,96.86
2023-02-02T09:00:25.544Z,96.86
2023-02-02T09:01:25.586Z,96.97
2023-02-02T09:02:25.594Z,96.86
2023-02-02T09:03:25.499Z,96.92
2023-02-02T09:04:25.501Z,96.97
2023-02-02T09:05:25.834Z,96.97
2023-02-02T09:06:25.448Z,96.76
2023-02-02T09:07:25.439Z,96.55
2023-02-02T09:08:25.445Z,96.45
2023-02-02T09:09:25.412Z,96.55
2023-02-02T09:10:25.404Z,96.66
2023-02-02T09:11:25.389Z,97.07
2023-02-02T09:12:25.379Z,97.07
2023-02-02T09:13:25.376Z,97.13
2023-02-02T09:14:25.358Z,97.28
2023-02-02T09:15:25.699Z,97.24
2023-02-02T09:16:25.432Z,97.24
2023-02-02T09:17:25.308Z,97.13
2023-02-02T09:18:25.308Z,97.03
2023-02-02T09:19:25.281Z,96.82
2023-02-02T09:20:25.297Z,96.92
2023-02-02T09:21:25.255Z,97.13
2023-02-02T09:22:27.361Z,97.24
2023-02-02T09:23:25.233Z,97.03
2023-02-02T09:24:25.223Z,97.13
2023-02-02T09:25:25.646Z,97.03
2023-02-02T09:26:25.327Z,97.03
2023-02-02T09:27:25.176Z,96.92
2023-02-02T09:28:25.172Z,96.51
2023-02-02T09:29:25.164Z,96.09
2023-02-02T09:30:25.150Z,95.99
2023-02-02T09:31:25.251Z,96.25
2023-02-02T09:32:25.131Z,96.25
2023-02-02T09:33:25.097Z,95.94
2023-02-02T09:34:25.091Z,95.73
2023-02-02T09:35:25.420Z,95.42
2023-02-02T09:36:25.095Z,95.01
2023-02-02T09:37:25.043Z,94.70
2023-02-02T09:38:25.035Z,94.59
2023-02-02T09:39:25.017Z,94.59
2023-02-02T09:40:25.003Z,94.76
2023-02-02T09:41:24.999Z,94.96
2023-02-02T09:42:24.976Z,94.55
2023-02-02T09:43:24.968Z,94.55
2023-02-02T09:44:24.956Z,94.80
2023-02-02T09:45:25.383Z,95.01
2023-02-02T09:46:25.905Z,94.96
2023-02-02T09:47:24.919Z,94.59
2023-02-02T09:48:24.916Z,94.38
2023-02-02T09:49:24.885Z,94.38
2023-02-02T09:50:24.867Z,94.38
2023-02-02T09:51:24.873Z,94.18
2023-02-02T09:52:24.888Z,94.38
2023-02-02T09:53:24.852Z,94.28
2023-02-02T09:54:24.827Z,94.45
2023-02-02T09:55:25.174Z,93.97
2023-02-02T09:56:24.864Z,93.66
2023-02-02T09:57:24.796Z,93.72
2023-02-02T09:58:24.772Z,93.66
2023-02-02T09:59:24.826Z,93.66
2023-02-02T10:00:24.742Z,93.55
2023-02-02T10:01:24.834Z,93.03
2023-02-02T10:02:24.723Z,92.82
2023-02-02T10:03:24.736Z,92.99
2023-02-02T10:04:24.707Z,93.10
2023-02-02T10:05:25.038Z,93.20
2023-02-02T10:06:24.672Z,92.88
2023-02-02T10:07:24.652Z,92.99
2023-02-02T10:08:34.442Z,92.88
2023-02-02T10:09:25.658Z,92.47
2023-02-02T10:10:24.612Z,92.36
2023-02-02T10:11:24.601Z,92.26
2023-02-02T10:12:24.590Z,92.16
2023-02-02T10:13:24.580Z,92.26
2023-02-02T10:14:24.614Z,92.05
2023-02-02T10:15:25.105Z,91.85
2023-02-02T10:16:24.678Z,91.64
2023-02-02T10:17:24.521Z,91.64
2023-02-02T10:18:24.506Z,91.53
2023-02-02T10:19:24.495Z,91.74
2023-02-02T10:20:24.984Z,91.64
2023-02-02T10:21:24.469Z,91.33
2023-02-02T10:22:24.451Z,91.33
2023-02-02T10:23:24.443Z,91.43
2023-02-02T10:24:24.460Z,91.43
2023-02-02T10:25:24.437Z,91.74
2023-02-02T10:26:24.463Z,91.80
2023-02-02T10:27:24.391Z,91.80
2023-02-02T10:28:24.379Z,91.80
2023-02-02T10:29:24.360Z,92.01
2023-02-02T10:30:24.703Z,91.80
2023-02-02T10:31:24.452Z,91.95
2023-02-02T10:32:24.348Z,91.91
2023-02-02T10:33:24.340Z,91.91
2023-02-02T10:34:24.296Z,91.70
2023-02-02T10:35:24.278Z,91.60
2023-02-02T10:36:24.266Z,91.60
2023-02-02T10:37:24.265Z,91.18
2023-02-02T10:38:24.247Z,91.28
2023-02-02T10:39:24.236Z,91.28
2023-02-02T10:40:24.680Z,91.28
2023-02-02T10:41:24.217Z,91.39
2023-02-02T10:42:24.198Z,91.18
2023-02-02T10:43:24.289Z,91.49
2023-02-02T10:44:24.173Z,91.39
2023-02-02T10:45:24.164Z,91.49
2023-02-02T10:46:24.180Z,91.39
2023-02-02T10:47:24.150Z,91.18
2023-02-02T10:48:24.114Z,91.14
2023-02-02T10:49:24.097Z,91.14
2023-02-02T10:50:24.556Z,91.28
2023-02-02T10:51:24.121Z,91.60
2023-02-02T10:52:24.063Z,91.28
2023-02-02T10:53:24.044Z,90.97
2023-02-02T10:54:24.030Z,91.03
2023-02-02T10:55:24.023Z,90.83
2023-02-02T10:56:24.033Z,91.14
2023-02-02T10:57:23.991Z,91.14
2023-02-02T10:58:23.988Z,91.14
2023-02-02T10:59:23.963Z,90.83
2023-02-02T11:00:24.044Z,90.93
2023-02-02T11:01:24.003Z,91.03
2023-02-02T11:02:23.962Z,90.62
2023-02-02T11:03:23.915Z,90.72
2023-02-02T11:04:23.909Z,90.83
2023-02-02T11:05:23.891Z,90.93
2023-02-02T11:06:23.870Z,91.03
2023-02-02T11:07:23.865Z,90.72
2023-02-02T11:08:23.853Z,91.03
2023-02-02T11:09:23.852Z,91.14
2023-02-02T11:10:24.241Z,90.93
2023-02-02T11:11:23.806Z,90.62
2023-02-02T11:12:23.814Z,91.14
2023-02-02T11:13:23.776Z,91.55
2023-02-02T11:14:23.765Z,91.66
2023-02-02T11:15:23.758Z,91.55
2023-02-02T11:16:23.831Z,91.76
2023-02-02T11:17:23.740Z,91.55
2023-02-02T11:18:23.718Z,91.66
2023-02-02T11:19:23.708Z,91.76
2023-02-02T11:20:24.203Z,91.86
2023-02-02T11:21:23.674Z,91.55
2023-02-02T11:22:23.658Z,91.55
2023-02-02T11:23:23.655Z,91.86
2023-02-02T11:24:23.641Z,91.86
2023-02-02T11:25:23.628Z,91.14
2023-02-02T11:26:23.655Z,91.14
2023-02-02T11:27:23.600Z,91.66
2023-02-02T11:28:23.612Z,91.76
2023-02-02T11:29:23.575Z,91.76
2023-02-02T11:30:23.942Z,91.97
2023-02-02T11:31:23.684Z,91.55
2023-02-02T11:32:23.540Z,91.91
2023-02-02T11:33:23.519Z,91.91
2023-02-02T11:34:23.513Z,91.70
2023-02-02T11:35:23.497Z,91.91
2023-02-02T11:36:23.502Z,92.43
2023-02-02T11:37:23.461Z,92.53
2023-02-02T11:38:23.448Z,92.84
2023-02-02T11:39:23.442Z,92.11
2023-02-02T11:40:23.988Z,92.43
2023-02-02T11:41:23.422Z,92.53
2023-02-02T11:42:23.402Z,92.49
2023-02-02T11:43:23.387Z,92.69
2023-02-02T11:44:23.390Z,92.69
2023-02-02T11:45:23.351Z,92.59
2023-02-02T11:46:23.364Z,92.90
2023-02-02T11:47:23.330Z,92.94
2023-02-02T11:48:23.332Z,93.16
2023-02-02T11:49:23.309Z,93.26
2023-02-02T11:50:23.789Z,93.37
2023-02-02T11:51:23.353Z,93.68
2023-02-02T11:52:23.279Z,93.78
2023-02-02T11:53:23.268Z,93.78
2023-02-02T11:54:23.235Z,93.78
2023-02-02T11:55:23.224Z,93.63
2023-02-02T11:56:23.218Z,93.78
2023-02-02T11:57:23.199Z,93.57
2023-02-02T11:58:23.185Z,93.53
2023-02-02T11:59:23.179Z,93.53
2023-02-02T12:00:23.610Z,93.95
2023-02-02T12:01:23.152Z,93.63
2023-02-02T12:02:23.231Z,93.43
2023-02-02T12:03:23.117Z,93.12
2023-02-02T12:04:23.145Z,93.12
2023-02-02T12:05:23.099Z,93.12
2023-02-02T12:06:23.088Z,93.22
2023-02-02T12:07:23.065Z,93.22
2023-02-02T12:08:23.053Z,93.32
2023-02-02T12:09:23.039Z,93.57
2023-02-02T12:10:23.383Z,93.74
2023-02-02T12:11:23.020Z,93.63
2023-02-02T12:12:23.016Z,93.78
2023-02-02T12:13:22.995Z,93.78
2023-02-02T12:14:22.969Z,93.84
2023-02-02T12:15:22.965Z,93.84
2023-02-02T12:16:23.000Z,93.95
2023-02-02T12:17:22.942Z,94.15
2023-02-02T12:18:22.926Z,94.46
2023-02-02T12:19:22.912Z,94.36
2023-02-02T12:20:23.200Z,94.15
2023-02-02T12:21:22.909Z,93.95
2023-02-02T12:22:22.877Z,93.80
2023-02-02T12:23:22.878Z,93.70
2023-02-02T12:24:22.847Z,93.18
2023-02-02T12:25:23.137Z,92.76
2023-02-02T12:26:22.892Z,92.66
2023-02-02T12:27:22.807Z,91.93
2023-02-02T12:28:22.803Z,91.72
2023-02-02T12:29:22.807Z,90.37
2023-02-02T12:30:22.898Z,89.03
2023-02-02T12:31:22.792Z,88.46
2023-02-02T12:32:22.768Z,88.05
2023-02-02T12:33:22.746Z,87.63
2023-02-02T12:34:22.724Z,87.01
2023-02-02T12:35:22.710Z,86.80
2023-02-02T12:36:22.709Z,87.12
2023-02-02T12:37:22.681Z,86.39
2023-02-02T12:38:22.662Z,86.39
2023-02-02T12:39:22.659Z,85.94
2023-02-02T12:40:22.641Z,86.08
2023-02-02T12:41:22.634Z,86.39
2023-02-02T12:42:22.608Z,86.39
2023-02-02T12:43:22.596Z,86.70
2023-02-02T12:44:22.578Z,86.49
2023-02-02T12:45:22.578Z,86.39
2023-02-02T12:46:22.577Z,86.39
2023-02-02T12:47:22.545Z,86.39
2023-02-02T12:48:22.562Z,87.12
2023-02-02T12:49:22.541Z,86.91
2023-02-02T12:50:22.518Z,86.70
2023-02-02T12:51:22.491Z,86.80
2023-02-02T12:52:22.483Z,87.22